createdAt,value
2018-06-17T00:00:42.438Z,31.10
2018-06-17T00:05:46.252Z,29.33
2018-06-17T00:10:49.951Z,24.80
2018-06-17T00:15:53.040Z,21.27
2018-06-17T00:20:56.185Z,28.80
2018-06-17T00:25:59.410Z,16.37
2018-06-17T00:31:02.432Z,20.67
2018-06-17T00:36:06.521Z,17.80
2018-06-17T00:41:09.891Z,27.60
2018-06-17T00:46:13.060Z,19.10
2018-06-17T00:51:16.151Z,19.03
2018-06-17T00:56:19.512Z,20.90
2018-06-17T01:01:22.881Z,16.60
2018-06-17T01:06:26.229Z,19.93
2018-06-17T01:11:30.099Z,27.03
2018-06-17T01:16:33.157Z,17.37
2018-06-17T01:21:36.696Z,19.73
2018-06-17T01:26:39.812Z,21.47
2018-06-17T01:31:42.860Z,19.10
2018-06-17T01:36:46.219Z,18.97
2018-06-17T01:41:49.701Z,18.73
2018-06-17T01:46:52.815Z,16.23
2018-06-17T01:51:55.835Z,17.07
2018-06-17T01:56:58.897Z,16.43
2018-06-17T02:02:02.050Z,12.80
2018-06-17T02:07:11.008Z,14.00
2018-06-17T02:12:18.224Z,14.03
2018-06-17T02:17:22.829Z,12.30
2018-06-17T02:22:25.904Z,17.50
2018-06-17T02:27:29.276Z,15.40
2018-06-17T02:32:32.502Z,13.70
2018-06-17T02:37:35.679Z,14.17
2018-06-17T02:42:38.809Z,15.33
2018-06-17T02:47:48.100Z,12.37
2018-06-17T02:52:56.680Z,14.37
2018-06-17T02:57:59.533Z,21.60
2018-06-17T03:03:08.555Z,16.30
2018-06-17T03:08:17.738Z,15.80
2018-06-17T03:19:27.347Z,13.00
2018-06-17T03:24:36.251Z,12.70
2018-06-17T03:29:45.048Z,26.10
2018-06-17T03:34:53.697Z,13.30
2018-06-17T03:39:57.233Z,12.10
2018-06-17T03:45:00.225Z,12.70
2018-06-17T03:50:03.286Z,20.53
2018-06-17T03:55:06.738Z,22.20
2018-06-17T04:00:10.044Z,20.67
2018-06-17T04:05:18.521Z,18.87
2018-06-17T04:10:23.964Z,16.13
2018-06-17T04:15:27.012Z,22.10
2018-06-17T04:20:29.956Z,15.00
2018-06-17T04:25:33.508Z,16.00
2018-06-17T04:30:36.525Z,16.40
2018-06-17T04:35:40.207Z,15.93
2018-06-17T04:40:43.421Z,20.90
2018-06-17T04:45:46.338Z,18.07
2018-06-17T04:50:49.397Z,17.77
2018-06-17T04:55:52.788Z,17.07
2018-06-17T05:00:55.693Z,17.77
2018-06-17T05:05:58.920Z,31.63
2018-06-17T05:11:03.030Z,14.63
2018-06-17T05:16:06.029Z,15.40
2018-06-17T05:21:08.990Z,15.47
2018-06-17T05:26:12.384Z,21.90
2018-06-17T05:31:15.593Z,11.80
2018-06-17T05:36:18.780Z,15.17
2018-06-17T05:41:26.407Z,18.33
2018-06-17T05:46:30.348Z,15.83
2018-06-17T05:51:33.909Z,13.60
2018-06-17T05:56:37.503Z,13.30
2018-06-17T06:01:40.415Z,9.70
2018-06-17T06:06:43.380Z,8.83
2018-06-17T06:11:47.288Z,7.30
2018-06-17T06:16:50.202Z,7.60
2018-06-17T06:21:53.737Z,9.37
2018-06-17T06:26:56.713Z,6.87
2018-06-17T06:31:59.666Z,6.80
2018-06-17T06:37:02.550Z,5.13
2018-06-17T06:42:05.917Z,6.30
2018-06-17T06:47:08.806Z,5.30
2018-06-17T06:52:19.897Z,7.20
2018-06-17T06:57:23.149Z,5.70
2018-06-17T07:02:37.008Z,7.07
2018-06-17T07:07:51.349Z,5.10
2018-06-17T07:12:54.544Z,5.90
2018-06-17T07:18:08.665Z,4.13
2018-06-17T07:23:12.070Z,7.60
2018-06-17T07:28:26.216Z,6.50
2018-06-17T07:33:29.384Z,5.40
2018-06-17T07:38:32.260Z,6.13
2018-06-17T07:43:35.903Z,6.13
2018-06-17T07:49:22.733Z,5.63
2018-06-17T07:54:25.740Z,5.30
2018-06-17T07:59:28.773Z,4.47
2018-06-17T08:04:37.022Z,5.20
2018-06-17T08:09:40.165Z,4.17
2018-06-17T08:14:43.186Z,4.13
2018-06-17T08:19:46.052Z,3.47
2018-06-17T08:24:48.921Z,4.67
2018-06-17T08:29:56.732Z,4.30
2018-06-17T08:35:07.705Z,4.53
2018-06-17T08:40:12.530Z,3.67
2018-06-17T08:45:15.713Z,4.53
2018-06-17T08:50:18.580Z,3.30
2018-06-17T08:55:21.485Z,3.67
2018-06-17T09:00:25.981Z,4.70
2018-06-17T09:05:33.057Z,4.90
2018-06-17T09:10:41.478Z,5.40
2018-06-17T09:15:44.970Z,5.17
2018-06-17T09:20:47.880Z,4.07
2018-06-17T09:25:50.745Z,5.50
2018-06-17T09:30:53.809Z,5.37
2018-06-17T09:35:56.869Z,9.93
2018-06-17T09:41:05.121Z,11.10
2018-06-17T09:46:08.797Z,21.17
2018-06-17T09:51:11.739Z,21.30
2018-06-17T09:56:14.652Z,20.37
2018-06-17T10:01:17.559Z,19.60
2018-06-17T10:06:20.508Z,23.63
2018-06-17T10:11:27.430Z,15.43
2018-06-17T10:16:31.102Z,13.93
2018-06-17T10:21:34.835Z,9.60
2018-06-17T10:26:39.789Z,9.40
2018-06-17T10:31:42.888Z,8.30
2018-06-17T10:36:47.516Z,9.00
2018-06-17T10:41:55.431Z,8.97
2018-06-17T10:47:04.499Z,5.83
2018-06-17T10:52:07.781Z,6.20
2018-06-17T10:57:10.686Z,11.73
2018-06-17T11:02:13.664Z,12.53
2018-06-17T11:07:16.517Z,6.67
2018-06-17T11:12:19.872Z,5.63
2018-06-17T11:17:23.339Z,5.40
2018-06-17T11:22:26.698Z,6.00
2018-06-17T11:27:29.601Z,3.93
2018-06-17T11:32:32.555Z,4.27
2018-06-17T11:37:35.473Z,3.30
2018-06-17T11:42:38.638Z,2.53
2018-06-17T11:47:41.764Z,1.90
2018-06-17T11:52:45.097Z,2.20
2018-06-17T11:57:48.443Z,2.07
2018-06-17T12:02:51.490Z,1.90
2018-06-17T12:07:57.312Z,1.47
2018-06-17T12:13:00.219Z,1.83
2018-06-17T12:18:03.175Z,1.80
2018-06-17T12:23:06.400Z,2.10
2018-06-17T12:28:09.412Z,2.53
2018-06-17T12:33:12.337Z,2.20
2018-06-17T12:38:15.288Z,2.40
2018-06-17T12:43:18.322Z,2.40
2018-06-17T12:48:21.380Z,2.30
2018-06-17T12:53:24.595Z,2.40
2018-06-17T12:58:27.723Z,2.40
2018-06-17T13:03:30.795Z,2.53
2018-06-17T13:08:33.796Z,2.10
2018-06-17T13:13:36.829Z,2.63
2018-06-17T13:18:40.026Z,3.30
2018-06-17T13:23:42.939Z,2.57
2018-06-17T13:28:50.852Z,2.97
2018-06-17T13:33:54.062Z,2.60
2018-06-17T13:38:57.075Z,2.67
2018-06-17T13:43:59.994Z,2.57
2018-06-17T13:49:03.199Z,2.43
2018-06-17T13:54:06.087Z,2.40
2018-06-17T13:59:09.232Z,2.57
2018-06-17T14:04:12.100Z,2.50
2018-06-17T14:09:15.010Z,3.10
2018-06-17T14:14:17.935Z,3.17
2018-06-17T14:19:21.265Z,2.70
2018-06-17T14:24:25.198Z,2.90
2018-06-17T14:29:59.123Z,2.97
2018-06-17T14:35:02.462Z,3.03
2018-06-17T14:40:05.420Z,2.60
2018-06-17T14:45:13.916Z,2.50
2018-06-17T14:50:22.336Z,2.70
2018-06-17T14:55:25.356Z,3.13
2018-06-17T15:00:28.325Z,2.93
2018-06-17T15:05:33.049Z,3.27
2018-06-17T15:10:37.192Z,2.33
2018-06-17T15:15:40.781Z,2.93
2018-06-17T15:20:44.260Z,3.00
2018-06-17T15:25:47.247Z,2.80
2018-06-17T15:30:50.321Z,2.60
2018-06-17T15:35:59.123Z,2.97
2018-06-17T15:41:07.736Z,2.70
2018-06-17T15:46:10.944Z,2.90
2018-06-17T15:51:14.636Z,2.30
2018-06-17T15:56:17.769Z,2.40
2018-06-17T16:01:21.121Z,2.60
2018-06-17T16:06:24.521Z,3.40
2018-06-17T16:11:27.829Z,3.00
2018-06-17T16:16:37.491Z,2.37
2018-06-17T16:21:45.420Z,3.03
2018-06-17T16:26:49.030Z,3.27
2018-06-17T16:31:52.214Z,3.17
2018-06-17T16:36:55.320Z,3.30
2018-06-17T16:41:58.731Z,3.17
2018-06-17T16:47:01.989Z,3.17
2018-06-17T16:52:11.203Z,2.77
2018-06-17T16:57:19.700Z,3.30
2018-06-17T17:02:22.662Z,3.27
2018-06-17T17:07:28.854Z,2.90
2018-06-17T17:12:31.731Z,2.60
2018-06-17T17:17:41.821Z,3.07
2018-06-17T17:22:45.545Z,3.80
2018-06-17T17:27:48.425Z,3.20
2018-06-17T17:32:56.752Z,3.40
2018-06-17T17:38:05.345Z,3.37
2018-06-17T17:43:08.256Z,4.40
2018-06-17T17:48:11.417Z,3.90
2018-06-17T17:53:14.426Z,4.33
2018-06-17T17:58:17.570Z,4.10
2018-06-17T18:03:20.475Z,5.27
2018-06-17T18:08:23.414Z,5.47
2018-06-17T18:13:26.501Z,5.40
2018-06-17T18:18:29.602Z,4.23
2018-06-17T18:23:32.821Z,5.03
2018-06-17T18:28:41.446Z,5.37
2018-06-17T18:33:50.129Z,4.63
2018-06-17T18:38:53.295Z,5.90
2018-06-17T18:43:56.506Z,5.20
2018-06-17T18:48:59.914Z,6.03
2018-06-17T18:54:07.595Z,5.43
2018-06-17T18:59:14.062Z,7.03
2018-06-17T19:04:18.601Z,7.50
2018-06-17T19:09:32.374Z,6.07
2018-06-17T19:14:42.265Z,6.10
2018-06-17T19:19:48.132Z,6.73
2018-06-17T19:24:51.951Z,6.50
2018-06-17T19:29:55.617Z,6.03
2018-06-17T19:34:59.553Z,6.30
2018-06-17T19:40:03.079Z,6.93
2018-06-17T19:45:06.347Z,7.20
2018-06-17T19:50:14.900Z,7.67
2018-06-17T19:55:23.677Z,6.80
2018-06-17T20:00:31.381Z,7.37
2018-06-17T20:05:34.380Z,7.70
2018-06-17T20:10:37.703Z,8.20
2018-06-17T20:15:40.688Z,8.77
2018-06-17T20:20:43.641Z,7.20
2018-06-17T20:25:46.590Z,8.30
2018-06-17T20:30:50.136Z,8.80
2018-06-17T20:35:59.340Z,9.07
2018-06-17T20:41:07.719Z,10.70
2018-06-17T20:46:10.676Z,10.33
2018-06-17T20:51:13.637Z,9.40
2018-06-17T20:56:17.203Z,11.97
2018-06-17T21:01:20.221Z,7.57
2018-06-17T21:06:23.406Z,11.10
2018-06-17T21:11:26.313Z,10.27
2018-06-17T21:16:29.201Z,10.20
2018-06-17T21:21:37.615Z,9.93
2018-06-17T21:26:46.061Z,11.63
2018-06-17T21:31:49.037Z,9.57
2018-06-17T21:36:52.176Z,11.97
2018-06-17T21:41:55.655Z,10.20
2018-06-17T21:46:58.600Z,10.20
2018-06-17T21:52:01.904Z,9.37
2018-06-17T21:57:06.864Z,6.83
2018-06-17T22:02:09.904Z,5.00
2018-06-17T22:07:13.814Z,5.27
2018-06-17T22:12:22.501Z,7.93
2018-06-17T22:17:30.743Z,7.80
2018-06-17T22:22:33.985Z,4.40
2018-06-17T22:27:37.088Z,4.60
2018-06-17T22:32:40.303Z,4.60
2018-06-17T22:37:43.239Z,6.70
2018-06-17T22:42:46.646Z,5.47
2018-06-17T22:47:55.289Z,12.17
2018-06-17T22:53:09.464Z,10.23
2018-06-17T22:58:18.572Z,8.47
2018-06-17T23:03:27.128Z,4.13
2018-06-17T23:08:35.972Z,5.90
2018-06-17T23:13:39.389Z,5.83
2018-06-17T23:18:54.105Z,4.33
2018-06-17T23:23:57.177Z,3.53
2018-06-17T23:29:00.833Z,4.30
2018-06-17T23:34:03.799Z,5.07
2018-06-17T23:39:08.325Z,5.00
2018-06-17T23:44:11.534Z,8.47
2018-06-17T23:49:20.244Z,6.07
2018-06-17T23:54:29.220Z,5.03
2018-06-17T23:59:33.444Z,4.60
